sensor_id;sensor_type;location;lat;lon;timestamp;P1;durP1;ratioP1;P2;durP2;ratioP2
20935;SDS011;10627;54.514;18.532;2023-03-16T00:03:09;12.97;;;5.33;;
20935;SDS011;10627;54.514;18.532;2023-03-16T00:08:10;12.80;;;4.67;;
20935;SDS011;10627;54.514;18.532;2023-03-16T00:13:12;8.70;;;3.57;;
20935;SDS011;10627;54.514;18.532;2023-03-16T00:18:14;15.10;;;4.10;;
20935;SDS011;10627;54.514;18.532;2023-03-16T00:23:15;9.67;;;3.40;;
20935;SDS011;10627;54.514;18.532;2023-03-16T00:28:15;8.30;;;3.57;;
20935;SDS011;10627;54.514;18.532;2023-03-16T00:33:16;16.40;;;3.90;;
20935;SDS011;10627;54.514;18.532;2023-03-16T00:38:21;12.43;;;4.20;;
20935;SDS011;10627;54.514;18.532;2023-03-16T00:43:22;8.53;;;4.23;;
20935;SDS011;10627;54.514;18.532;2023-03-16T00:48:26;7.47;;;3.50;;
20935;SDS011;10627;54.514;18.532;2023-03-16T00:53:27;7.90;;;3.70;;
20935;SDS011;10627;54.514;18.532;2023-03-16T00:58:28;6.43;;;3.30;;
20935;SDS011;10627;54.514;18.532;2023-03-16T01:03:35;6.97;;;3.90;;
20935;SDS011;10627;54.514;18.532;2023-03-16T01:08:37;8.37;;;3.30;;
20935;SDS011;10627;54.514;18.532;2023-03-16T01:13:38;10.10;;;3.87;;
20935;SDS011;10627;54.514;18.532;2023-03-16T01:18:39;9.30;;;3.33;;
20935;SDS011;10627;54.514;18.532;2023-03-16T01:23:40;9.57;;;4.47;;
20935;SDS011;10627;54.514;18.532;2023-03-16T01:28:43;11.17;;;4.23;;
20935;SDS011;10627;54.514;18.532;2023-03-16T01:33:44;7.13;;;3.40;;
20935;SDS011;10627;54.514;18.532;2023-03-16T01:38:49;9.63;;;3.70;;
20935;SDS011;10627;54.514;18.532;2023-03-16T01:43:50;10.03;;;4.00;;
20935;SDS011;10627;54.514;18.532;2023-03-16T01:54:01;12.60;;;3.70;;
20935;SDS011;10627;54.514;18.532;2023-03-16T01:59:08;9.13;;;3.67;;
20935;SDS011;10627;54.514;18.532;2023-03-16T02:04:17;11.47;;;4.33;;
20935;SDS011;10627;54.514;18.532;2023-03-16T02:09:23;9.73;;;3.87;;
20935;SDS011;10627;54.514;18.532;2023-03-16T02:14:25;9.30;;;4.13;;
20935;SDS011;10627;54.514;18.532;2023-03-16T02:19:29;5.97;;;2.50;;
20935;SDS011;10627;54.514;18.532;2023-03-16T02:24:36;7.10;;;3.63;;
20935;SDS011;10627;54.514;18.532;2023-03-16T02:34:57;11.80;;;4.40;;
20935;SDS011;10627;54.514;18.532;2023-03-16T02:39:59;6.87;;;3.33;;
20935;SDS011;10627;54.514;18.532;2023-03-16T02:45:03;10.03;;;3.50;;
20935;SDS011;10627;54.514;18.532;2023-03-16T02:50:09;10.70;;;4.10;;
20935;SDS011;10627;54.514;18.532;2023-03-16T02:55:11;11.83;;;4.03;;
20935;SDS011;10627;54.514;18.532;2023-03-16T03:00:12;13.53;;;4.10;;
20935;SDS011;10627;54.514;18.532;2023-03-16T03:05:21;8.70;;;3.80;;
20935;SDS011;10627;54.514;18.532;2023-03-16T03:10:22;12.77;;;3.97;;
20935;SDS011;10627;54.514;18.532;2023-03-16T03:15:23;6.90;;;3.60;;
20935;SDS011;10627;54.514;18.532;2023-03-16T03:20:33;5.63;;;3.00;;
20935;SDS011;10627;54.514;18.532;2023-03-16T03:25:34;7.23;;;3.53;;
20935;SDS011;10627;54.514;18.532;2023-03-16T03:30:40;12.43;;;4.17;;
20935;SDS011;10627;54.514;18.532;2023-03-16T03:35:41;8.83;;;4.53;;
20935;SDS011;10627;54.514;18.532;2023-03-16T03:40:43;8.63;;;4.13;;
20935;SDS011;10627;54.514;18.532;2023-03-16T03:45:45;8.97;;;4.57;;
20935;SDS011;10627;54.514;18.532;2023-03-16T03:50:47;12.30;;;5.10;;
20935;SDS011;10627;54.514;18.532;2023-03-16T03:56:04;14.90;;;5.07;;
20935;SDS011;10627;54.514;18.532;2023-03-16T04:01:06;13.57;;;5.70;;
20935;SDS011;10627;54.514;18.532;2023-03-16T04:06:07;10.00;;;4.87;;
20935;SDS011;10627;54.514;18.532;2023-03-16T04:11:09;9.60;;;4.97;;
20935;SDS011;10627;54.514;18.532;2023-03-16T04:16:11;8.07;;;4.50;;
20935;SDS011;10627;54.514;18.532;2023-03-16T04:21:22;11.10;;;4.67;;
20935;SDS011;10627;54.514;18.532;2023-03-16T04:26:23;15.60;;;5.00;;
20935;SDS011;10627;54.514;18.532;2023-03-16T04:31:26;11.73;;;4.40;;
20935;SDS011;10627;54.514;18.532;2023-03-16T04:36:27;10.10;;;4.53;;
20935;SDS011;10627;54.514;18.532;2023-03-16T04:41:29;7.67;;;4.47;;
20935;SDS011;10627;54.514;18.532;2023-03-16T04:46:36;12.57;;;4.40;;
20935;SDS011;10627;54.514;18.532;2023-03-16T04:51:41;10.07;;;4.10;;
20935;SDS011;10627;54.514;18.532;2023-03-16T04:56:46;14.77;;;4.07;;
20935;SDS011;10627;54.514;18.532;2023-03-16T05:02:00;8.90;;;4.07;;
20935;SDS011;10627;54.514;18.532;2023-03-16T05:07:01;5.27;;;2.77;;
20935;SDS011;10627;54.514;18.532;2023-03-16T05:12:08;11.90;;;4.00;;
20935;SDS011;10627;54.514;18.532;2023-03-16T05:17:10;11.73;;;4.80;;
20935;SDS011;10627;54.514;18.532;2023-03-16T05:22:15;11.83;;;4.23;;
20935;SDS011;10627;54.514;18.532;2023-03-16T05:27:35;10.27;;;4.47;;
20935;SDS011;10627;54.514;18.532;2023-03-16T05:32:39;12.13;;;4.63;;
20935;SDS011;10627;54.514;18.532;2023-03-16T05:37:40;14.57;;;4.87;;
20935;SDS011;10627;54.514;18.532;2023-03-16T05:42:47;13.73;;;5.53;;
20935;SDS011;10627;54.514;18.532;2023-03-16T05:47:50;14.13;;;6.03;;
20935;SDS011;10627;54.514;18.532;2023-03-16T05:52:52;17.37;;;6.47;;
20935;SDS011;10627;54.514;18.532;2023-03-16T05:57:57;12.17;;;5.27;;
20935;SDS011;10627;54.514;18.532;2023-03-16T06:02:58;19.93;;;6.47;;
20935;SDS011;10627;54.514;18.532;2023-03-16T06:08:04;15.47;;;6.47;;
20935;SDS011;10627;54.514;18.532;2023-03-16T06:13:05;15.53;;;6.10;;
20935;SDS011;10627;54.514;18.532;2023-03-16T06:18:06;12.87;;;5.77;;
20935;SDS011;10627;54.514;18.532;2023-03-16T06:23:07;9.50;;;5.50;;
20935;SDS011;10627;54.514;18.532;2023-03-16T06:28:08;12.90;;;4.50;;
20935;SDS011;10627;54.514;18.532;2023-03-16T06:33:09;17.43;;;5.00;;
20935;SDS011;10627;54.514;18.532;2023-03-16T06:38:10;11.47;;;3.93;;
20935;SDS011;10627;54.514;18.532;2023-03-16T06:43:28;13.30;;;5.00;;
20935;SDS011;10627;54.514;18.532;2023-03-16T06:48:30;10.10;;;3.87;;
20935;SDS011;10627;54.514;18.532;2023-03-16T06:53:31;14.83;;;4.30;;
20935;SDS011;10627;54.514;18.532;2023-03-16T06:58:32;19.17;;;4.87;;
20935;SDS011;10627;54.514;18.532;2023-03-16T07:03:35;14.17;;;4.03;;
20935;SDS011;10627;54.514;18.532;2023-03-16T07:08:44;7.57;;;2.97;;
20935;SDS011;10627;54.514;18.532;2023-03-16T07:13:45;10.40;;;3.57;;
20935;SDS011;10627;54.514;18.532;2023-03-16T07:18:48;17.57;;;3.83;;
20935;SDS011;10627;54.514;18.532;2023-03-16T07:23:50;10.27;;;4.22;;
20935;SDS011;10627;54.514;18.532;2023-03-16T07:28:58;11.07;;;3.30;;
20935;SDS011;10627;54.514;18.532;2023-03-16T07:33:59;13.87;;;3.30;;
20935;SDS011;10627;54.514;18.532;2023-03-16T07:39:11;4.33;;;2.47;;
20935;SDS011;10627;54.514;18.532;2023-03-16T07:44:15;6.27;;;2.90;;
20935;SDS011;10627;54.514;18.532;2023-03-16T07:49:22;15.40;;;4.17;;
20935;SDS011;10627;54.514;18.532;2023-03-16T07:54:24;9.50;;;3.40;;
20935;SDS011;10627;54.514;18.532;2023-03-16T07:59:25;14.60;;;4.63;;
20935;SDS011;10627;54.514;18.532;2023-03-16T08:04:26;13.80;;;4.73;;
20935;SDS011;10627;54.514;18.532;2023-03-16T08:09:27;12.03;;;4.33;;
20935;SDS011;10627;54.514;18.532;2023-03-16T08:14:29;7.07;;;4.10;;
20935;SDS011;10627;54.514;18.532;2023-03-16T08:19:45;8.33;;;3.93;;
20935;SDS011;10627;54.514;18.532;2023-03-16T08:24:46;15.63;;;4.23;;
20935;SDS011;10627;54.514;18.532;2023-03-16T08:29:51;6.50;;;2.37;;
20935;SDS011;10627;54.514;18.532;2023-03-16T08:34:52;6.07;;;2.90;;
20935;SDS011;10627;54.514;18.532;2023-03-16T08:39:53;8.20;;;3.37;;
20935;SDS011;10627;54.514;18.532;2023-03-16T08:44:54;7.30;;;3.23;;
20935;SDS011;10627;54.514;18.532;2023-03-16T08:49:55;8.93;;;2.50;;
20935;SDS011;10627;54.514;18.532;2023-03-16T08:54:56;4.40;;;2.70;;
20935;SDS011;10627;54.514;18.532;2023-03-16T08:59:57;6.63;;;2.73;;
20935;SDS011;10627;54.514;18.532;2023-03-16T09:04:58;7.83;;;2.83;;
20935;SDS011;10627;54.514;18.532;2023-03-16T09:09:58;6.30;;;3.03;;
20935;SDS011;10627;54.514;18.532;2023-03-16T09:14:59;7.50;;;2.80;;
20935;SDS011;10627;54.514;18.532;2023-03-16T09:20:00;11.13;;;3.10;;
20935;SDS011;10627;54.514;18.532;2023-03-16T09:25:01;12.83;;;3.93;;
20935;SDS011;10627;54.514;18.532;2023-03-16T09:30:05;8.40;;;2.80;;
20935;SDS011;10627;54.514;18.532;2023-03-16T09:35:07;8.20;;;3.13;;
20935;SDS011;10627;54.514;18.532;2023-03-16T09:40:13;7.20;;;2.67;;
20935;SDS011;10627;54.514;18.532;2023-03-16T09:45:25;3.03;;;1.80;;
20935;SDS011;10627;54.514;18.532;2023-03-16T09:50:37;3.27;;;2.17;;
20935;SDS011;10627;54.514;18.532;2023-03-16T09:55:38;6.03;;;2.20;;
20935;SDS011;10627;54.514;18.532;2023-03-16T10:00:40;4.70;;;2.23;;
20935;SDS011;10627;54.514;18.532;2023-03-16T10:05:47;8.07;;;2.07;;
20935;SDS011;10627;54.514;18.532;2023-03-16T10:15:50;5.40;;;2.43;;
20935;SDS011;10627;54.514;18.532;2023-03-16T10:20:53;4.90;;;1.70;;
20935;SDS011;10627;54.514;18.532;2023-03-16T10:25:55;5.90;;;1.70;;
20935;SDS011;10627;54.514;18.532;2023-03-16T10:30:57;3.50;;;1.57;;
20935;SDS011;10627;54.514;18.532;2023-03-16T10:36:03;5.45;;;2.00;;
20935;SDS011;10627;54.514;18.532;2023-03-16T10:41:18;7.97;;;1.70;;
20935;SDS011;10627;54.514;18.532;2023-03-16T10:46:20;6.15;;;1.65;;
20935;SDS011;10627;54.514;18.532;2023-03-16T10:51:23;3.57;;;1.40;;
20935;SDS011;10627;54.514;18.532;2023-03-16T10:56:30;2.37;;;1.43;;
20935;SDS011;10627;54.514;18.532;2023-03-16T11:01:32;3.10;;;1.63;;
20935;SDS011;10627;54.514;18.532;2023-03-16T11:06:33;8.23;;;1.90;;
20935;SDS011;10627;54.514;18.532;2023-03-16T11:11:33;5.87;;;2.23;;
20935;SDS011;10627;54.514;18.532;2023-03-16T11:26:58;4.47;;;2.70;;
20935;SDS011;10627;54.514;18.532;2023-03-16T11:32:01;8.00;;;4.23;;
20935;SDS011;10627;54.514;18.532;2023-03-16T11:52:48;2.13;;;1.27;;
20935;SDS011;10627;54.514;18.532;2023-03-16T12:18:01;6.83;;;2.60;;
20935;SDS011;10627;54.514;18.532;2023-03-16T12:23:12;6.40;;;2.00;;
20935;SDS011;10627;54.514;18.532;2023-03-16T12:28:17;5.00;;;2.30;;
20935;SDS011;10627;54.514;18.532;2023-03-16T12:43:40;5.00;;;1.77;;
20935;SDS011;10627;54.514;18.532;2023-03-16T12:48:50;3.67;;;1.67;;
20935;SDS011;10627;54.514;18.532;2023-03-16T12:53:52;7.93;;;1.83;;
20935;SDS011;10627;54.514;18.532;2023-03-16T12:58:54;2.55;;;1.30;;
20935;SDS011;10627;54.514;18.532;2023-03-16T13:04:07;3.67;;;1.85;;
20935;SDS011;10627;54.514;18.532;2023-03-16T13:09:10;6.28;;;2.00;;
20935;SDS011;10627;54.514;18.532;2023-03-16T13:14:15;5.95;;;2.50;;
20935;SDS011;10627;54.514;18.532;2023-03-16T13:19:24;6.78;;;2.35;;
20935;SDS011;10627;54.514;18.532;2023-03-16T13:24:27;5.05;;;2.40;;
20935;SDS011;10627;54.514;18.532;2023-03-16T13:29:36;7.00;;;2.88;;
20935;SDS011;10627;54.514;18.532;2023-03-16T13:34:46;3.85;;;2.03;;
20935;SDS011;10627;54.514;18.532;2023-03-16T13:39:52;7.95;;;2.90;;
20935;SDS011;10627;54.514;18.532;2023-03-16T13:44:55;5.28;;;2.30;;
20935;SDS011;10627;54.514;18.532;2023-03-16T13:49:56;3.38;;;2.17;;
20935;SDS011;10627;54.514;18.532;2023-03-16T13:54:58;5.43;;;1.92;;
20935;SDS011;10627;54.514;18.532;2023-03-16T14:00:14;2.55;;;1.58;;
20935;SDS011;10627;54.514;18.532;2023-03-16T14:05:20;3.20;;;1.50;;
20935;SDS011;10627;54.514;18.532;2023-03-16T14:10:21;4.63;;;1.63;;
20935;SDS011;10627;54.514;18.532;2023-03-16T14:15:24;3.33;;;1.30;;
20935;SDS011;10627;54.514;18.532;2023-03-16T14:20:25;3.17;;;1.90;;
20935;SDS011;10627;54.514;18.532;2023-03-16T14:25:26;5.43;;;1.65;;
20935;SDS011;10627;54.514;18.532;2023-03-16T14:30:28;4.38;;;1.83;;
20935;SDS011;10627;54.514;18.532;2023-03-16T14:35:40;7.82;;;2.30;;
20935;SDS011;10627;54.514;18.532;2023-03-16T14:40:52;7.43;;;2.40;;
20935;SDS011;10627;54.514;18.532;2023-03-16T14:45:54;5.07;;;2.20;;
20935;SDS011;10627;54.514;18.532;2023-03-16T14:50:56;5.82;;;2.65;;
20935;SDS011;10627;54.514;18.532;2023-03-16T14:56:08;6.25;;;3.42;;
20935;SDS011;10627;54.514;18.532;2023-03-16T15:01:12;8.27;;;2.25;;
20935;SDS011;10627;54.514;18.532;2023-03-16T15:06:15;5.32;;;2.30;;
20935;SDS011;10627;54.514;18.532;2023-03-16T15:11:16;8.35;;;2.17;;
20935;SDS011;10627;54.514;18.532;2023-03-16T15:16:23;6.43;;;2.20;;
20935;SDS011;10627;54.514;18.532;2023-03-16T15:21:26;7.93;;;2.67;;
20935;SDS011;10627;54.514;18.532;2023-03-16T15:26:28;7.22;;;2.70;;
20935;SDS011;10627;54.514;18.532;2023-03-16T15:31:29;4.30;;;1.90;;
20935;SDS011;10627;54.514;18.532;2023-03-16T15:36:30;16.70;;;8.20;;
20935;SDS011;10627;54.514;18.532;2023-03-16T15:41:31;14.00;;;8.70;;
20935;SDS011;10627;54.514;18.532;2023-03-16T15:46:32;9.17;;;2.67;;
20935;SDS011;10627;54.514;18.532;2023-03-16T15:51:32;20.37;;;12.23;;
20935;SDS011;10627;54.514;18.532;2023-03-16T15:56:35;15.43;;;5.50;;
20935;SDS011;10627;54.514;18.532;2023-03-16T16:01:45;12.60;;;3.67;;
20935;SDS011;10627;54.514;18.532;2023-03-16T16:06:47;13.97;;;7.57;;
20935;SDS011;10627;54.514;18.532;2023-03-16T16:11:49;10.97;;;3.97;;
20935;SDS011;10627;54.514;18.532;2023-03-16T16:16:50;7.60;;;3.43;;
20935;SDS011;10627;54.514;18.532;2023-03-16T16:21:58;10.90;;;4.03;;
20935;SDS011;10627;54.514;18.532;2023-03-16T16:27:00;17.10;;;5.00;;
20935;SDS011;10627;54.514;18.532;2023-03-16T16:32:01;9.83;;;3.93;;
20935;SDS011;10627;54.514;18.532;2023-03-16T16:37:02;12.43;;;4.07;;
20935;SDS011;10627;54.514;18.532;2023-03-16T16:42:03;12.60;;;4.50;;
20935;SDS011;10627;54.514;18.532;2023-03-16T16:47:07;13.27;;;5.30;;
20935;SDS011;10627;54.514;18.532;2023-03-16T16:52:17;13.47;;;4.43;;
20935;SDS011;10627;54.514;18.532;2023-03-16T16:57:19;14.63;;;4.43;;
20935;SDS011;10627;54.514;18.532;2023-03-16T17:02:22;14.07;;;4.30;;
20935;SDS011;10627;54.514;18.532;2023-03-16T17:07:36;9.87;;;4.27;;
20935;SDS011;10627;54.514;18.532;2023-03-16T17:12:37;11.80;;;4.40;;
20935;SDS011;10627;54.514;18.532;2023-03-16T17:17:38;10.77;;;4.43;;
20935;SDS011;10627;54.514;18.532;2023-03-16T17:22:39;13.73;;;5.93;;
20935;SDS011;10627;54.514;18.532;2023-03-16T17:27:41;14.23;;;5.47;;
20935;SDS011;10627;54.514;18.532;2023-03-16T17:32:45;17.50;;;7.50;;
20935;SDS011;10627;54.514;18.532;2023-03-16T17:37:47;14.40;;;6.90;;
20935;SDS011;10627;54.514;18.532;2023-03-16T17:42:48;20.57;;;7.70;;
20935;SDS011;10627;54.514;18.532;2023-03-16T17:47:49;40.10;;;12.90;;
20935;SDS011;10627;54.514;18.532;2023-03-16T17:52:51;36.97;;;13.93;;
20935;SDS011;10627;54.514;18.532;2023-03-16T17:57:52;45.53;;;19.20;;
20935;SDS011;10627;54.514;18.532;2023-03-16T18:02:59;45.60;;;21.60;;
20935;SDS011;10627;54.514;18.532;2023-03-16T18:08:10;42.20;;;19.53;;
20935;SDS011;10627;54.514;18.532;2023-03-16T18:13:24;44.33;;;21.90;;
20935;SDS011;10627;54.514;18.532;2023-03-16T18:18:29;31.17;;;16.73;;
20935;SDS011;10627;54.514;18.532;2023-03-16T18:23:32;20.07;;;9.17;;
20935;SDS011;10627;54.514;18.532;2023-03-16T18:28:34;15.27;;;7.00;;
20935;SDS011;10627;54.514;18.532;2023-03-16T18:33:36;16.23;;;6.80;;
20935;SDS011;10627;54.514;18.532;2023-03-16T18:38:39;16.17;;;7.27;;
20935;SDS011;10627;54.514;18.532;2023-03-16T18:43:42;22.37;;;5.93;;
20935;SDS011;10627;54.514;18.532;2023-03-16T18:48:44;13.20;;;6.73;;
20935;SDS011;10627;54.514;18.532;2023-03-16T18:53:58;18.97;;;7.27;;
20935;SDS011;10627;54.514;18.532;2023-03-16T18:58:59;16.07;;;7.67;;
20935;SDS011;10627;54.514;18.532;2023-03-16T19:04:00;23.27;;;8.20;;
20935;SDS011;10627;54.514;18.532;2023-03-16T19:09:09;19.67;;;7.50;;
20935;SDS011;10627;54.514;18.532;2023-03-16T19:14:22;18.57;;;8.27;;
20935;SDS011;10627;54.514;18.532;2023-03-16T19:19:28;16.87;;;8.23;;
20935;SDS011;10627;54.514;18.532;2023-03-16T19:29:46;34.03;;;15.27;;
20935;SDS011;10627;54.514;18.532;2023-03-16T19:34:48;80.40;;;25.13;;
20935;SDS011;10627;54.514;18.532;2023-03-16T19:39:49;53.77;;;21.23;;
20935;SDS011;10627;54.514;18.532;2023-03-16T19:44:50;38.70;;;15.43;;
20935;SDS011;10627;54.514;18.532;2023-03-16T19:49:51;29.00;;;12.83;;
20935;SDS011;10627;54.514;18.532;2023-03-16T19:54:52;21.47;;;10.17;;
20935;SDS011;10627;54.514;18.532;2023-03-16T19:59:54;16.23;;;8.10;;
20935;SDS011;10627;54.514;18.532;2023-03-16T20:04:56;21.43;;;9.03;;
20935;SDS011;10627;54.514;18.532;2023-03-16T20:09:58;23.83;;;9.73;;
20935;SDS011;10627;54.514;18.532;2023-03-16T20:20:26;23.37;;;11.63;;
20935;SDS011;10627;54.514;18.532;2023-03-16T20:25:49;17.27;;;8.67;;
20935;SDS011;10627;54.514;18.532;2023-03-16T20:31:15;24.07;;;10.43;;
20935;SDS011;10627;54.514;18.532;2023-03-16T20:36:42;25.57;;;11.83;;
20935;SDS011;10627;54.514;18.532;2023-03-16T20:42:03;31.53;;;11.70;;
20935;SDS011;10627;54.514;18.532;2023-03-16T20:47:25;25.10;;;11.73;;
20935;SDS011;10627;54.514;18.532;2023-03-16T20:52:46;25.57;;;9.87;;
20935;SDS011;10627;54.514;18.532;2023-03-16T20:58:18;23.77;;;10.57;;
20935;SDS011;10627;54.514;18.532;2023-03-16T21:03:42;24.07;;;10.33;;
20935;SDS011;10627;54.514;18.532;2023-03-16T21:09:04;29.53;;;12.00;;
20935;SDS011;10627;54.514;18.532;2023-03-16T21:14:25;27.63;;;11.57;;
20935;SDS011;10627;54.514;18.532;2023-03-16T21:19:46;27.03;;;10.97;;
20935;SDS011;10627;54.514;18.532;2023-03-16T21:25:09;70.70;;;25.20;;
20935;SDS011;10627;54.514;18.532;2023-03-16T21:30:38;58.33;;;20.17;;
20935;SDS011;10627;54.514;18.532;2023-03-16T21:36:03;28.13;;;11.00;;
20935;SDS011;10627;54.514;18.532;2023-03-16T21:41:26;25.07;;;10.87;;
20935;SDS011;10627;54.514;18.532;2023-03-16T21:46:47;30.80;;;11.40;;
20935;SDS011;10627;54.514;18.532;2023-03-16T21:52:14;41.33;;;15.77;;
20935;SDS011;10627;54.514;18.532;2023-03-16T21:57:44;71.60;;;22.30;;
20935;SDS011;10627;54.514;18.532;2023-03-16T22:03:06;43.50;;;15.93;;
20935;SDS011;10627;54.514;18.532;2023-03-16T22:08:39;26.53;;;11.43;;
20935;SDS011;10627;54.514;18.532;2023-03-16T22:14:00;30.07;;;11.27;;
20935;SDS011;10627;54.514;18.532;2023-03-16T22:19:21;52.87;;;17.20;;
20935;SDS011;10627;54.514;18.532;2023-03-16T22:24:42;31.50;;;12.70;;
20935;SDS011;10627;54.514;18.532;2023-03-16T22:30:03;29.90;;;11.27;;
20935;SDS011;10627;54.514;18.532;2023-03-16T22:35:26;26.47;;;12.80;;
20935;SDS011;10627;54.514;18.532;2023-03-16T22:40:52;27.50;;;12.80;;
20935;SDS011;10627;54.514;18.532;2023-03-16T22:46:20;29.07;;;12.23;;
20935;SDS011;10627;54.514;18.532;2023-03-16T22:51:43;26.07;;;11.63;;
20935;SDS011;10627;54.514;18.532;2023-03-16T22:57:04;30.50;;;11.53;;
20935;SDS011;10627;54.514;18.532;2023-03-16T23:02:25;22.80;;;11.23;;
20935;SDS011;10627;54.514;18.532;2023-03-16T23:07:47;22.30;;;10.63;;
20935;SDS011;10627;54.514;18.532;2023-03-16T23:13:10;32.23;;;12.27;;
20935;SDS011;10627;54.514;18.532;2023-03-16T23:18:32;21.73;;;10.83;;
20935;SDS011;10627;54.514;18.532;2023-03-16T23:23:54;29.93;;;11.67;;
20935;SDS011;10627;54.514;18.532;2023-03-16T23:29:15;24.43;;;11.37;;
20935;SDS011;10627;54.514;18.532;2023-03-16T23:34:36;24.67;;;10.70;;
20935;SDS011;10627;54.514;18.532;2023-03-16T23:39:57;28.63;;;12.17;;
20935;SDS011;10627;54.514;18.532;2023-03-16T23:45:32;26.93;;;11.73;;
20935;SDS011;10627;54.514;18.532;2023-03-16T23:50:56;25.73;;;11.20;;
20935;SDS011;10627;54.514;18.532;2023-03-16T23:56:17;28.07;;;11.80;;
